createdAt,value
2022-08-07T18:26:05.405Z,35.19
2022-08-07T18:28:57.680Z,35.07
2022-08-07T18:31:59.415Z,35.36
2022-08-07T18:35:00.818Z,35.01
2022-08-07T18:38:57.999Z,36.06
2022-08-07T18:41:56.890Z,36.71
2022-08-07T18:45:43.303Z,36.16
2022-08-07T18:47:44.976Z,35.98
2022-08-07T18:50:39.456Z,36.47
2022-08-07T18:53:36.827Z,36.40
2022-08-07T18:56:34.976Z,36.61
2022-08-07T18:59:46.964Z,37.45
2022-08-07T19:02:44.685Z,37.79
2022-08-07T19:06:03.168Z,37.91
2022-08-07T19:08:29.209Z,37.91
2022-08-07T19:11:35.031Z,38.32
2022-08-07T19:14:20.330Z,38.26
2022-08-07T19:17:06.388Z,38.13
2022-08-07T19:19:37.700Z,38.23
2022-08-07T19:22:11.185Z,38.35
2022-08-07T19:24:46.153Z,38.38
2022-08-07T19:28:30.838Z,38.86
2022-08-07T19:31:02.940Z,38.26
2022-08-07T19:33:10.080Z,38.55
2022-08-07T19:35:40.849Z,38.78
2022-08-07T19:38:16.793Z,38.26
2022-08-07T19:40:49.637Z,38.76
2022-08-07T19:43:48.775Z,38.77
2022-08-07T19:46:10.684Z,39.15
2022-08-07T19:48:43.691Z,38.67
2022-08-07T19:51:20.226Z,38.81
2022-08-07T19:54:34.647Z,39.24
2022-08-07T19:58:01.868Z,39.59
2022-08-07T19:59:45.860Z,39.00
2022-08-07T20:02:19.471Z,38.87
2022-08-07T20:04:51.883Z,39.18
2022-08-07T20:07:47.586Z,39.64
2022-08-07T20:10:37.683Z,39.90
2022-08-07T20:13:22.691Z,39.50
2022-08-07T20:15:53.860Z,39.71
2022-08-07T20:18:32.586Z,40.01
2022-08-07T20:21:02.267Z,40.20
2022-08-07T20:23:42.934Z,40.86
2022-08-07T20:26:29.573Z,40.42
2022-08-07T20:29:01.600Z,40.50
2022-08-07T20:31:44.423Z,40.71
2022-08-07T20:34:15.047Z,41.03
2022-08-07T20:36:44.257Z,40.77
2022-08-07T20:40:01.091Z,40.63
2022-08-07T20:42:14.414Z,40.77
2022-08-07T20:44:49.593Z,40.88
2022-08-07T20:47:25.008Z,41.35
2022-08-07T20:49:57.841Z,41.78
